sensor_id;sensor_type;location;lat;lon;timestamp;P1;durP1;ratioP1;P2;durP2;ratioP2
36551;SDS011;22559;54.176;12.102;2022-10-16T00:01:39;4.63;;;4.23;;
36551;SDS011;22559;54.176;12.102;2022-10-16T00:04:04;5.13;;;4.73;;
36551;SDS011;22559;54.176;12.102;2022-10-16T00:06:30;5.23;;;4.43;;
36551;SDS011;22559;54.176;12.102;2022-10-16T00:08:57;6.10;;;5.03;;
36551;SDS011;22559;54.176;12.102;2022-10-16T00:11:33;4.80;;;4.40;;
36551;SDS011;22559;54.176;12.102;2022-10-16T00:14:02;6.30;;;5.33;;
36551;SDS011;22559;54.176;12.102;2022-10-16T00:16:29;5.00;;;4.60;;
36551;SDS011;22559;54.176;12.102;2022-10-16T00:18:55;8.73;;;4.80;;
36551;SDS011;22559;54.176;12.102;2022-10-16T00:21:22;5.60;;;5.07;;
36551;SDS011;22559;54.176;12.102;2022-10-16T00:23:51;6.47;;;4.80;;
36551;SDS011;22559;54.176;12.102;2022-10-16T00:26:18;5.63;;;4.93;;
36551;SDS011;22559;54.176;12.102;2022-10-16T00:28:50;5.50;;;5.00;;
36551;SDS011;22559;54.176;12.102;2022-10-16T00:31:17;5.70;;;5.17;;
36551;SDS011;22559;54.176;12.102;2022-10-16T00:33:44;5.63;;;5.10;;
36551;SDS011;22559;54.176;12.102;2022-10-16T00:36:11;5.53;;;5.03;;
36551;SDS011;22559;54.176;12.102;2022-10-16T00:38:39;6.80;;;5.50;;
36551;SDS011;22559;54.176;12.102;2022-10-16T00:41:06;5.33;;;4.67;;
36551;SDS011;22559;54.176;12.102;2022-10-16T00:46:02;5.60;;;5.07;;
36551;SDS011;22559;54.176;12.102;2022-10-16T00:48:34;6.10;;;4.93;;
36551;SDS011;22559;54.176;12.102;2022-10-16T00:50:59;6.07;;;4.73;;
36551;SDS011;22559;54.176;12.102;2022-10-16T00:53:25;5.40;;;4.90;;
36551;SDS011;22559;54.176;12.102;2022-10-16T00:55:52;5.40;;;5.00;;
36551;SDS011;22559;54.176;12.102;2022-10-16T00:58:18;5.17;;;4.67;;
36551;SDS011;22559;54.176;12.102;2022-10-16T01:00:44;5.67;;;5.20;;
36551;SDS011;22559;54.176;12.102;2022-10-16T01:14:35;6.07;;;5.00;;
36551;SDS011;22559;54.176;12.102;2022-10-16T01:22:30;8.90;;;5.20;;
36551;SDS011;22559;54.176;12.102;2022-10-16T01:25:23;4.90;;;4.50;;
36551;SDS011;22559;54.176;12.102;2022-10-16T01:28:05;4.30;;;4.00;;
36551;SDS011;22559;54.176;12.102;2022-10-16T01:30:36;5.23;;;3.80;;
36551;SDS011;22559;54.176;12.102;2022-10-16T01:33:21;5.17;;;3.90;;
36551;SDS011;22559;54.176;12.102;2022-10-16T01:35:55;4.63;;;3.47;;
36551;SDS011;22559;54.176;12.102;2022-10-16T01:38:32;3.70;;;3.47;;
36551;SDS011;22559;54.176;12.102;2022-10-16T01:41:03;4.40;;;3.67;;
36551;SDS011;22559;54.176;12.102;2022-10-16T01:43:38;4.27;;;3.43;;
36551;SDS011;22559;54.176;12.102;2022-10-16T01:46:18;4.57;;;3.60;;
36551;SDS011;22559;54.176;12.102;2022-10-16T01:48:47;4.33;;;3.40;;
36551;SDS011;22559;54.176;12.102;2022-10-16T01:51:14;3.83;;;3.10;;
36551;SDS011;22559;54.176;12.102;2022-10-16T01:53:42;4.20;;;3.10;;
36551;SDS011;22559;54.176;12.102;2022-10-16T01:56:12;4.47;;;4.07;;
36551;SDS011;22559;54.176;12.102;2022-10-16T01:58:42;3.37;;;3.17;;
36551;SDS011;22559;54.176;12.102;2022-10-16T02:01:15;3.40;;;3.20;;
36551;SDS011;22559;54.176;12.102;2022-10-16T02:03:44;3.80;;;3.50;;
36551;SDS011;22559;54.176;12.102;2022-10-16T02:06:11;7.73;;;3.33;;
36551;SDS011;22559;54.176;12.102;2022-10-16T02:08:37;3.90;;;3.50;;
36551;SDS011;22559;54.176;12.102;2022-10-16T02:11:05;4.67;;;3.80;;
36551;SDS011;22559;54.176;12.102;2022-10-16T02:13:36;5.30;;;4.80;;
36551;SDS011;22559;54.176;12.102;2022-10-16T02:16:15;5.47;;;4.97;;
36551;SDS011;22559;54.176;12.102;2022-10-16T02:18:40;6.60;;;5.07;;
36551;SDS011;22559;54.176;12.102;2022-10-16T02:21:14;5.17;;;4.80;;
36551;SDS011;22559;54.176;12.102;2022-10-16T02:23:57;6.60;;;5.63;;
36551;SDS011;22559;54.176;12.102;2022-10-16T02:26:43;6.37;;;5.63;;
36551;SDS011;22559;54.176;12.102;2022-10-16T02:29:16;8.53;;;6.03;;
36551;SDS011;22559;54.176;12.102;2022-10-16T02:31:46;7.00;;;6.30;;
36551;SDS011;22559;54.176;12.102;2022-10-16T02:34:16;10.07;;;6.57;;
36551;SDS011;22559;54.176;12.102;2022-10-16T02:36:45;6.90;;;6.00;;
36551;SDS011;22559;54.176;12.102;2022-10-16T02:39:12;6.83;;;6.13;;
36551;SDS011;22559;54.176;12.102;2022-10-16T02:41:39;7.77;;;6.70;;
36551;SDS011;22559;54.176;12.102;2022-10-16T02:44:04;8.07;;;6.73;;
36551;SDS011;22559;54.176;12.102;2022-10-16T02:46:30;9.03;;;6.17;;
36551;SDS011;22559;54.176;12.102;2022-10-16T02:48:56;9.43;;;6.80;;
36551;SDS011;22559;54.176;12.102;2022-10-16T02:51:21;8.00;;;7.20;;
36551;SDS011;22559;54.176;12.102;2022-10-16T02:53:47;6.80;;;6.10;;
36551;SDS011;22559;54.176;12.102;2022-10-16T02:56:12;8.57;;;6.87;;
36551;SDS011;22559;54.176;12.102;2022-10-16T02:58:38;7.30;;;6.50;;
36551;SDS011;22559;54.176;12.102;2022-10-16T03:01:03;7.40;;;5.90;;
36551;SDS011;22559;54.176;12.102;2022-10-16T03:03:29;10.50;;;6.57;;
36551;SDS011;22559;54.176;12.102;2022-10-16T03:05:54;7.93;;;6.50;;
36551;SDS011;22559;54.176;12.102;2022-10-16T03:08:20;8.27;;;5.80;;
36551;SDS011;22559;54.176;12.102;2022-10-16T03:10:48;7.17;;;5.40;;
36551;SDS011;22559;54.176;12.102;2022-10-16T03:13:14;8.23;;;5.33;;
36551;SDS011;22559;54.176;12.102;2022-10-16T03:15:40;8.00;;;5.50;;
36551;SDS011;22559;54.176;12.102;2022-10-16T03:18:05;8.53;;;5.47;;
36551;SDS011;22559;54.176;12.102;2022-10-16T03:20:31;6.07;;;5.10;;
36551;SDS011;22559;54.176;12.102;2022-10-16T03:22:57;5.97;;;4.83;;
36551;SDS011;22559;54.176;12.102;2022-10-16T03:25:23;7.80;;;5.53;;
36551;SDS011;22559;54.176;12.102;2022-10-16T03:27:48;7.33;;;4.87;;
36551;SDS011;22559;54.176;12.102;2022-10-16T03:30:14;5.10;;;4.63;;
36551;SDS011;22559;54.176;12.102;2022-10-16T03:32:41;5.00;;;4.50;;
36551;SDS011;22559;54.176;12.102;2022-10-16T03:35:07;6.47;;;5.10;;
36551;SDS011;22559;54.176;12.102;2022-10-16T03:37:32;7.03;;;5.20;;
36551;SDS011;22559;54.176;12.102;2022-10-16T03:39:58;7.23;;;5.03;;
36551;SDS011;22559;54.176;12.102;2022-10-16T03:42:24;5.17;;;4.73;;
36551;SDS011;22559;54.176;12.102;2022-10-16T03:44:49;6.63;;;4.63;;
36551;SDS011;22559;54.176;12.102;2022-10-16T03:47:15;7.87;;;4.83;;
36551;SDS011;22559;54.176;12.102;2022-10-16T03:49:45;5.10;;;4.60;;
36551;SDS011;22559;54.176;12.102;2022-10-16T03:52:11;5.87;;;4.50;;
36551;SDS011;22559;54.176;12.102;2022-10-16T03:54:36;5.33;;;4.40;;
36551;SDS011;22559;54.176;12.102;2022-10-16T03:57:02;7.17;;;4.30;;
36551;SDS011;22559;54.176;12.102;2022-10-16T03:59:27;8.63;;;4.57;;
36551;SDS011;22559;54.176;12.102;2022-10-16T04:01:53;5.80;;;4.27;;
36551;SDS011;22559;54.176;12.102;2022-10-16T04:04:18;5.13;;;4.47;;
36551;SDS011;22559;54.176;12.102;2022-10-16T04:06:44;5.77;;;4.50;;
36551;SDS011;22559;54.176;12.102;2022-10-16T04:09:09;7.30;;;4.63;;
36551;SDS011;22559;54.176;12.102;2022-10-16T04:11:35;6.10;;;5.23;;
36551;SDS011;22559;54.176;12.102;2022-10-16T04:14:01;9.37;;;4.60;;
36551;SDS011;22559;54.176;12.102;2022-10-16T04:16:26;5.77;;;3.90;;
36551;SDS011;22559;54.176;12.102;2022-10-16T04:18:52;4.37;;;3.97;;
36551;SDS011;22559;54.176;12.102;2022-10-16T04:21:17;4.37;;;3.93;;
36551;SDS011;22559;54.176;12.102;2022-10-16T04:23:43;4.10;;;3.70;;
36551;SDS011;22559;54.176;12.102;2022-10-16T04:26:08;4.53;;;3.33;;
36551;SDS011;22559;54.176;12.102;2022-10-16T04:28:35;4.27;;;3.83;;
36551;SDS011;22559;54.176;12.102;2022-10-16T04:31:03;4.10;;;3.80;;
36551;SDS011;22559;54.176;12.102;2022-10-16T04:33:29;5.87;;;3.30;;
36551;SDS011;22559;54.176;12.102;2022-10-16T04:35:58;4.80;;;3.40;;
36551;SDS011;22559;54.176;12.102;2022-10-16T04:38:25;5.27;;;3.40;;
36551;SDS011;22559;54.176;12.102;2022-10-16T04:40:51;8.40;;;3.90;;
36551;SDS011;22559;54.176;12.102;2022-10-16T04:43:17;10.67;;;7.63;;
36551;SDS011;22559;54.176;12.102;2022-10-16T04:45:42;8.17;;;7.00;;
36551;SDS011;22559;54.176;12.102;2022-10-16T04:48:08;5.67;;;4.03;;
36551;SDS011;22559;54.176;12.102;2022-10-16T04:50:34;4.40;;;3.37;;
36551;SDS011;22559;54.176;12.102;2022-10-16T04:52:59;3.57;;;3.27;;
36551;SDS011;22559;54.176;12.102;2022-10-16T04:55:25;5.37;;;3.53;;
36551;SDS011;22559;54.176;12.102;2022-10-16T04:57:50;5.10;;;3.30;;
36551;SDS011;22559;54.176;12.102;2022-10-16T05:00:16;4.07;;;3.20;;
36551;SDS011;22559;54.176;12.102;2022-10-16T05:02:42;3.47;;;3.20;;
36551;SDS011;22559;54.176;12.102;2022-10-16T05:05:07;7.10;;;3.43;;
36551;SDS011;22559;54.176;12.102;2022-10-16T05:07:33;3.83;;;3.17;;
36551;SDS011;22559;54.176;12.102;2022-10-16T05:09:59;3.20;;;2.90;;
36551;SDS011;22559;54.176;12.102;2022-10-16T05:12:24;3.00;;;2.80;;
36551;SDS011;22559;54.176;12.102;2022-10-16T05:14:50;3.10;;;2.90;;
36551;SDS011;22559;54.176;12.102;2022-10-16T05:17:15;3.60;;;3.30;;
36551;SDS011;22559;54.176;12.102;2022-10-16T05:19:41;3.80;;;2.90;;
36551;SDS011;22559;54.176;12.102;2022-10-16T05:22:06;3.13;;;2.93;;
36551;SDS011;22559;54.176;12.102;2022-10-16T05:24:32;3.00;;;2.80;;
36551;SDS011;22559;54.176;12.102;2022-10-16T05:26:58;2.93;;;2.70;;
36551;SDS011;22559;54.176;12.102;2022-10-16T05:29:23;3.43;;;3.13;;
36551;SDS011;22559;54.176;12.102;2022-10-16T05:31:50;3.20;;;2.90;;
36551;SDS011;22559;54.176;12.102;2022-10-16T05:34:16;5.27;;;2.80;;
36551;SDS011;22559;54.176;12.102;2022-10-16T05:36:42;3.50;;;2.70;;
36551;SDS011;22559;54.176;12.102;2022-10-16T05:39:10;2.87;;;2.60;;
36551;SDS011;22559;54.176;12.102;2022-10-16T05:41:35;4.00;;;2.67;;
36551;SDS011;22559;54.176;12.102;2022-10-16T05:44:04;3.17;;;2.83;;
36551;SDS011;22559;54.176;12.102;2022-10-16T05:46:30;7.37;;;2.67;;
36551;SDS011;22559;54.176;12.102;2022-10-16T05:48:56;5.73;;;2.70;;
36551;SDS011;22559;54.176;12.102;2022-10-16T05:51:22;2.40;;;2.30;;
36551;SDS011;22559;54.176;12.102;2022-10-16T05:53:48;2.83;;;2.13;;
36551;SDS011;22559;54.176;12.102;2022-10-16T05:56:14;2.67;;;2.40;;
36551;SDS011;22559;54.176;12.102;2022-10-16T05:58:40;2.30;;;2.20;;
36551;SDS011;22559;54.176;12.102;2022-10-16T06:01:10;3.60;;;2.47;;
36551;SDS011;22559;54.176;12.102;2022-10-16T06:03:38;2.47;;;2.27;;
36551;SDS011;22559;54.176;12.102;2022-10-16T06:06:07;3.53;;;2.50;;
36551;SDS011;22559;54.176;12.102;2022-10-16T06:08:34;4.87;;;2.50;;
36551;SDS011;22559;54.176;12.102;2022-10-16T06:11:01;2.87;;;2.10;;
36551;SDS011;22559;54.176;12.102;2022-10-16T06:13:28;4.63;;;2.50;;
36551;SDS011;22559;54.176;12.102;2022-10-16T06:15:56;2.50;;;2.30;;
36551;SDS011;22559;54.176;12.102;2022-10-16T06:18:22;5.50;;;2.20;;
36551;SDS011;22559;54.176;12.102;2022-10-16T06:20:48;3.87;;;2.10;;
36551;SDS011;22559;54.176;12.102;2022-10-16T06:23:13;5.57;;;2.10;;
36551;SDS011;22559;54.176;12.102;2022-10-16T06:25:39;3.37;;;2.50;;
36551;SDS011;22559;54.176;12.102;2022-10-16T06:28:05;4.30;;;2.20;;
36551;SDS011;22559;54.176;12.102;2022-10-16T06:30:30;2.63;;;2.13;;
36551;SDS011;22559;54.176;12.102;2022-10-16T06:32:56;3.13;;;2.40;;
36551;SDS011;22559;54.176;12.102;2022-10-16T06:35:22;2.33;;;2.10;;
36551;SDS011;22559;54.176;12.102;2022-10-16T06:37:47;5.13;;;2.30;;
36551;SDS011;22559;54.176;12.102;2022-10-16T06:40:13;2.20;;;2.10;;
36551;SDS011;22559;54.176;12.102;2022-10-16T06:42:39;5.10;;;2.50;;
36551;SDS011;22559;54.176;12.102;2022-10-16T06:45:05;5.03;;;2.00;;
36551;SDS011;22559;54.176;12.102;2022-10-16T06:47:31;3.13;;;2.30;;
36551;SDS011;22559;54.176;12.102;2022-10-16T06:49:57;2.37;;;1.83;;
36551;SDS011;22559;54.176;12.102;2022-10-16T06:52:22;2.17;;;1.83;;
36551;SDS011;22559;54.176;12.102;2022-10-16T06:54:49;2.37;;;1.83;;
36551;SDS011;22559;54.176;12.102;2022-10-16T06:57:14;3.93;;;2.00;;
36551;SDS011;22559;54.176;12.102;2022-10-16T06:59:40;3.33;;;2.13;;
36551;SDS011;22559;54.176;12.102;2022-10-16T07:02:06;2.23;;;1.80;;
36551;SDS011;22559;54.176;12.102;2022-10-16T07:04:33;4.80;;;2.10;;
36551;SDS011;22559;54.176;12.102;2022-10-16T07:07:00;1.60;;;1.53;;
36551;SDS011;22559;54.176;12.102;2022-10-16T07:09:26;2.10;;;1.73;;
36551;SDS011;22559;54.176;12.102;2022-10-16T07:11:51;1.83;;;1.73;;
36551;SDS011;22559;54.176;12.102;2022-10-16T07:14:18;2.63;;;2.10;;
36551;SDS011;22559;54.176;12.102;2022-10-16T07:16:45;3.23;;;1.77;;
36551;SDS011;22559;54.176;12.102;2022-10-16T07:19:11;1.87;;;1.70;;
36551;SDS011;22559;54.176;12.102;2022-10-16T07:21:39;3.00;;;1.73;;
36551;SDS011;22559;54.176;12.102;2022-10-16T07:24:06;1.57;;;1.47;;
36551;SDS011;22559;54.176;12.102;2022-10-16T07:26:36;3.00;;;1.83;;
36551;SDS011;22559;54.176;12.102;2022-10-16T07:29:04;3.47;;;1.60;;
36551;SDS011;22559;54.176;12.102;2022-10-16T07:31:31;3.63;;;1.50;;
36551;SDS011;22559;54.176;12.102;2022-10-16T07:33:58;2.43;;;1.80;;
36551;SDS011;22559;54.176;12.102;2022-10-16T07:36:24;3.60;;;1.93;;
36551;SDS011;22559;54.176;12.102;2022-10-16T07:38:50;1.83;;;1.73;;
36551;SDS011;22559;54.176;12.102;2022-10-16T07:41:17;4.83;;;1.83;;
36551;SDS011;22559;54.176;12.102;2022-10-16T07:43:50;3.97;;;1.60;;
36551;SDS011;22559;54.176;12.102;2022-10-16T07:46:17;3.20;;;1.83;;
36551;SDS011;22559;54.176;12.102;2022-10-16T07:48:45;3.30;;;1.37;;
36551;SDS011;22559;54.176;12.102;2022-10-16T07:51:12;2.93;;;1.60;;
36551;SDS011;22559;54.176;12.102;2022-10-16T07:53:39;2.83;;;1.70;;
36551;SDS011;22559;54.176;12.102;2022-10-16T07:56:05;1.37;;;1.30;;
36551;SDS011;22559;54.176;12.102;2022-10-16T07:58:32;1.43;;;1.30;;
36551;SDS011;22559;54.176;12.102;2022-10-16T08:01:02;2.00;;;1.50;;
36551;SDS011;22559;54.176;12.102;2022-10-16T08:03:33;4.97;;;1.90;;
36551;SDS011;22559;54.176;12.102;2022-10-16T08:05:59;2.20;;;1.60;;
36551;SDS011;22559;54.176;12.102;2022-10-16T08:08:25;4.23;;;2.20;;
36551;SDS011;22559;54.176;12.102;2022-10-16T08:10:52;1.80;;;1.70;;
36551;SDS011;22559;54.176;12.102;2022-10-16T08:13:18;1.73;;;1.60;;
36551;SDS011;22559;54.176;12.102;2022-10-16T08:15:44;2.10;;;1.33;;
36551;SDS011;22559;54.176;12.102;2022-10-16T08:18:10;2.47;;;1.52;;
36551;SDS011;22559;54.176;12.102;2022-10-16T08:20:37;3.45;;;1.40;;
36551;SDS011;22559;54.176;12.102;2022-10-16T08:23:03;1.33;;;1.23;;
36551;SDS011;22559;54.176;12.102;2022-10-16T08:25:29;2.42;;;1.50;;
36551;SDS011;22559;54.176;12.102;2022-10-16T08:27:55;1.60;;;1.50;;
36551;SDS011;22559;54.176;12.102;2022-10-16T08:30:22;1.95;;;1.50;;
36551;SDS011;22559;54.176;12.102;2022-10-16T08:32:49;3.47;;;1.08;;
36551;SDS011;22559;54.176;12.102;2022-10-16T08:35:14;2.90;;;1.50;;
36551;SDS011;22559;54.176;12.102;2022-10-16T08:37:40;2.15;;;1.60;;
36551;SDS011;22559;54.176;12.102;2022-10-16T08:40:10;1.45;;;1.35;;
36551;SDS011;22559;54.176;12.102;2022-10-16T08:51:24;1.67;;;1.30;;
36551;SDS011;22559;54.176;12.102;2022-10-16T08:56:21;2.10;;;1.55;;
36551;SDS011;22559;54.176;12.102;2022-10-16T08:58:48;2.05;;;1.10;;
36551;SDS011;22559;54.176;12.102;2022-10-16T09:01:15;2.58;;;2.20;;
36551;SDS011;22559;54.176;12.102;2022-10-16T09:15:20;2.70;;;1.53;;
36551;SDS011;22559;54.176;12.102;2022-10-16T09:17:55;4.20;;;1.83;;
36551;SDS011;22559;54.176;12.102;2022-10-16T09:23:38;1.90;;;1.80;;
36551;SDS011;22559;54.176;12.102;2022-10-16T09:26:04;2.65;;;1.70;;
36551;SDS011;22559;54.176;12.102;2022-10-16T09:28:34;1.67;;;1.58;;
36551;SDS011;22559;54.176;12.102;2022-10-16T09:31:00;3.38;;;2.15;;
36551;SDS011;22559;54.176;12.102;2022-10-16T09:33:28;3.28;;;1.95;;
36551;SDS011;22559;54.176;12.102;2022-10-16T09:36:00;1.23;;;1.23;;
36551;SDS011;22559;54.176;12.102;2022-10-16T09:38:31;1.70;;;1.60;;
36551;SDS011;22559;54.176;12.102;2022-10-16T09:41:00;2.17;;;1.65;;
36551;SDS011;22559;54.176;12.102;2022-10-16T09:43:52;2.65;;;1.60;;
36551;SDS011;22559;54.176;12.102;2022-10-16T09:48:54;7.10;;;1.70;;
36551;SDS011;22559;54.176;12.102;2022-10-16T09:53:58;1.50;;;1.40;;
36551;SDS011;22559;54.176;12.102;2022-10-16T09:56:29;1.38;;;1.30;;
36551;SDS011;22559;54.176;12.102;2022-10-16T09:58:58;4.60;;;4.20;;
36551;SDS011;22559;54.176;12.102;2022-10-16T10:01:30;1.80;;;1.33;;
36551;SDS011;22559;54.176;12.102;2022-10-16T10:04:02;2.50;;;2.40;;
36551;SDS011;22559;54.176;12.102;2022-10-16T10:06:30;2.15;;;1.40;;
36551;SDS011;22559;54.176;12.102;2022-10-16T10:11:36;1.35;;;1.27;;
36551;SDS011;22559;54.176;12.102;2022-10-16T10:14:06;2.05;;;1.42;;
36551;SDS011;22559;54.176;12.102;2022-10-16T10:16:42;1.52;;;1.42;;
36551;SDS011;22559;54.176;12.102;2022-10-16T10:19:13;1.33;;;1.20;;
36551;SDS011;22559;54.176;12.102;2022-10-16T10:21:43;3.05;;;1.20;;
36551;SDS011;22559;54.176;12.102;2022-10-16T10:24:14;1.30;;;1.20;;
36551;SDS011;22559;54.176;12.102;2022-10-16T10:34:55;1.08;;;1.00;;
36551;SDS011;22559;54.176;12.102;2022-10-16T10:45:47;1.42;;;1.33;;
36551;SDS011;22559;54.176;12.102;2022-10-16T10:51:22;1.25;;;1.25;;
36551;SDS011;22559;54.176;12.102;2022-10-16T10:53:55;1.00;;;1.00;;
36551;SDS011;22559;54.176;12.102;2022-10-16T10:57:21;1.92;;;1.45;;
36551;SDS011;22559;54.176;12.102;2022-10-16T11:02:48;1.50;;;1.40;;
36551;SDS011;22559;54.176;12.102;2022-10-16T11:08:17;1.70;;;1.60;;
36551;SDS011;22559;54.176;12.102;2022-10-16T11:10:53;1.30;;;1.30;;
36551;SDS011;22559;54.176;12.102;2022-10-16T11:13:36;1.88;;;1.35;;
36551;SDS011;22559;54.176;12.102;2022-10-16T11:16:17;1.65;;;1.33;;
36551;SDS011;22559;54.176;12.102;2022-10-16T11:21:39;2.20;;;1.38;;
36551;SDS011;22559;54.176;12.102;2022-10-16T11:24:39;1.20;;;1.10;;
36551;SDS011;22559;54.176;12.102;2022-10-16T11:27:08;1.33;;;1.17;;
36551;SDS011;22559;54.176;12.102;2022-10-16T11:29:40;2.97;;;1.20;;
36551;SDS011;22559;54.176;12.102;2022-10-16T11:32:19;1.55;;;1.10;;
36551;SDS011;22559;54.176;12.102;2022-10-16T11:35:02;1.40;;;1.00;;
36551;SDS011;22559;54.176;12.102;2022-10-16T11:37:43;1.10;;;1.00;;
36551;SDS011;22559;54.176;12.102;2022-10-16T11:42:58;2.05;;;1.20;;
36551;SDS011;22559;54.176;12.102;2022-10-16T11:45:33;1.00;;;0.93;;
36551;SDS011;22559;54.176;12.102;2022-10-16T11:51:02;2.20;;;0.90;;
36551;SDS011;22559;54.176;12.102;2022-10-16T11:56:08;1.17;;;1.00;;
36551;SDS011;22559;54.176;12.102;2022-10-16T11:58:43;1.08;;;1.08;;
36551;SDS011;22559;54.176;12.102;2022-10-16T12:01:49;2.95;;;1.10;;
36551;SDS011;22559;54.176;12.102;2022-10-16T12:04:29;0.85;;;0.85;;
36551;SDS011;22559;54.176;12.102;2022-10-16T12:07:20;1.00;;;0.90;;
36551;SDS011;22559;54.176;12.102;2022-10-16T12:09:51;1.08;;;1.05;;
36551;SDS011;22559;54.176;12.102;2022-10-16T12:12:27;3.63;;;1.45;;
36551;SDS011;22559;54.176;12.102;2022-10-16T12:15:18;2.38;;;1.00;;
36551;SDS011;22559;54.176;12.102;2022-10-16T12:17:43;1.05;;;1.00;;
36551;SDS011;22559;54.176;12.102;2022-10-16T12:22:41;1.33;;;1.20;;
36551;SDS011;22559;54.176;12.102;2022-10-16T12:25:19;1.02;;;1.00;;
36551;SDS011;22559;54.176;12.102;2022-10-16T12:30:39;3.13;;;1.20;;
36551;SDS011;22559;54.176;12.102;2022-10-16T12:33:15;0.90;;;0.90;;
36551;SDS011;22559;54.176;12.102;2022-10-16T12:35:50;1.10;;;1.10;;
36551;SDS011;22559;54.176;12.102;2022-10-16T12:38:20;1.75;;;1.20;;
36551;SDS011;22559;54.176;12.102;2022-10-16T12:40:54;1.00;;;1.00;;
36551;SDS011;22559;54.176;12.102;2022-10-16T12:43:35;1.15;;;1.00;;
36551;SDS011;22559;54.176;12.102;2022-10-16T12:46:22;1.10;;;1.10;;
36551;SDS011;22559;54.176;12.102;2022-10-16T12:51:38;5.32;;;1.00;;
36551;SDS011;22559;54.176;12.102;2022-10-16T13:11:02;3.15;;;1.30;;
36551;SDS011;22559;54.176;12.102;2022-10-16T13:13:49;1.90;;;1.50;;
36551;SDS011;22559;54.176;12.102;2022-10-16T13:27:07;1.98;;;1.88;;
36551;SDS011;22559;54.176;12.102;2022-10-16T13:30:43;2.75;;;1.45;;
36551;SDS011;22559;54.176;12.102;2022-10-16T13:33:01;2.75;;;1.10;;
36551;SDS011;22559;54.176;12.102;2022-10-16T13:35:30;2.83;;;1.33;;
36551;SDS011;22559;54.176;12.102;2022-10-16T13:38:13;1.23;;;1.17;;
36551;SDS011;22559;54.176;12.102;2022-10-16T13:40:51;1.10;;;1.08;;
36551;SDS011;22559;54.176;12.102;2022-10-16T13:43:23;1.05;;;0.95;;
36551;SDS011;22559;54.176;12.102;2022-10-16T13:48:24;1.40;;;1.10;;
36551;SDS011;22559;54.176;12.102;2022-10-16T13:51:00;2.28;;;0.90;;
36551;SDS011;22559;54.176;12.102;2022-10-16T13:53:35;2.17;;;1.30;;
36551;SDS011;22559;54.176;12.102;2022-10-16T13:56:02;1.92;;;1.10;;
36551;SDS011;22559;54.176;12.102;2022-10-16T13:58:29;3.65;;;1.10;;
36551;SDS011;22559;54.176;12.102;2022-10-16T14:00:56;2.47;;;1.33;;
36551;SDS011;22559;54.176;12.102;2022-10-16T14:03:22;2.40;;;1.25;;
36551;SDS011;22559;54.176;12.102;2022-10-16T14:05:51;1.60;;;0.90;;
36551;SDS011;22559;54.176;12.102;2022-10-16T14:08:19;1.23;;;0.90;;
36551;SDS011;22559;54.176;12.102;2022-10-16T14:10:52;3.35;;;1.17;;
36551;SDS011;22559;54.176;12.102;2022-10-16T14:13:22;2.15;;;1.20;;
36551;SDS011;22559;54.176;12.102;2022-10-16T14:16:11;3.60;;;1.08;;
36551;SDS011;22559;54.176;12.102;2022-10-16T14:18:44;1.98;;;1.58;;
36551;SDS011;22559;54.176;12.102;2022-10-16T14:21:15;2.67;;;1.35;;
36551;SDS011;22559;54.176;12.102;2022-10-16T14:23:41;3.10;;;1.20;;
36551;SDS011;22559;54.176;12.102;2022-10-16T14:28:34;2.28;;;1.15;;
36551;SDS011;22559;54.176;12.102;2022-10-16T14:31:01;1.75;;;1.20;;
36551;SDS011;22559;54.176;12.102;2022-10-16T14:33:42;1.92;;;1.42;;
36551;SDS011;22559;54.176;12.102;2022-10-16T14:36:12;3.67;;;1.50;;
36551;SDS011;22559;54.176;12.102;2022-10-16T14:38:40;3.38;;;1.20;;
36551;SDS011;22559;54.176;12.102;2022-10-16T14:41:07;1.27;;;1.17;;
36551;SDS011;22559;54.176;12.102;2022-10-16T14:43:35;1.38;;;1.20;;
36551;SDS011;22559;54.176;12.102;2022-10-16T14:46:03;2.03;;;1.20;;
36551;SDS011;22559;54.176;12.102;2022-10-16T14:48:36;1.15;;;1.05;;
36551;SDS011;22559;54.176;12.102;2022-10-16T14:51:14;2.72;;;1.65;;
36551;SDS011;22559;54.176;12.102;2022-10-16T14:53:43;2.88;;;1.20;;
36551;SDS011;22559;54.176;12.102;2022-10-16T14:56:14;1.13;;;1.02;;
36551;SDS011;22559;54.176;12.102;2022-10-16T14:58:46;1.52;;;1.30;;
36551;SDS011;22559;54.176;12.102;2022-10-16T15:01:12;2.75;;;1.20;;
36551;SDS011;22559;54.176;12.102;2022-10-16T15:03:38;2.17;;;1.15;;
36551;SDS011;22559;54.176;12.102;2022-10-16T15:06:04;1.23;;;1.10;;
36551;SDS011;22559;54.176;12.102;2022-10-16T15:08:38;3.17;;;1.05;;
36551;SDS011;22559;54.176;12.102;2022-10-16T15:11:05;1.92;;;1.35;;
36551;SDS011;22559;54.176;12.102;2022-10-16T15:13:37;2.47;;;1.38;;
36551;SDS011;22559;54.176;12.102;2022-10-16T15:16:02;4.00;;;1.30;;
36551;SDS011;22559;54.176;12.102;2022-10-16T15:18:28;3.13;;;1.25;;
36551;SDS011;22559;54.176;12.102;2022-10-16T15:20:54;3.25;;;1.30;;
36551;SDS011;22559;54.176;12.102;2022-10-16T15:23:20;2.50;;;1.35;;
36551;SDS011;22559;54.176;12.102;2022-10-16T15:25:47;1.75;;;1.40;;
36551;SDS011;22559;54.176;12.102;2022-10-16T15:28:17;3.70;;;1.35;;
36551;SDS011;22559;54.176;12.102;2022-10-16T15:30:44;3.30;;;1.90;;
36551;SDS011;22559;54.176;12.102;2022-10-16T15:33:17;2.45;;;1.33;;
36551;SDS011;22559;54.176;12.102;2022-10-16T15:35:47;3.10;;;1.83;;
36551;SDS011;22559;54.176;12.102;2022-10-16T15:38:14;2.92;;;1.60;;
36551;SDS011;22559;54.176;12.102;2022-10-16T15:40:40;2.75;;;2.00;;
36551;SDS011;22559;54.176;12.102;2022-10-16T15:43:06;14.38;;;8.65;;
36551;SDS011;22559;54.176;12.102;2022-10-16T15:45:32;4.70;;;3.90;;
36551;SDS011;22559;54.176;12.102;2022-10-16T15:47:58;3.53;;;2.10;;
36551;SDS011;22559;54.176;12.102;2022-10-16T15:50:24;4.53;;;2.45;;
36551;SDS011;22559;54.176;12.102;2022-10-16T15:52:50;10.50;;;6.38;;
36551;SDS011;22559;54.176;12.102;2022-10-16T15:55:16;8.10;;;5.22;;
36551;SDS011;22559;54.176;12.102;2022-10-16T15:57:43;6.57;;;3.80;;
36551;SDS011;22559;54.176;12.102;2022-10-16T16:00:11;3.42;;;2.30;;
36551;SDS011;22559;54.176;12.102;2022-10-16T16:02:39;5.30;;;3.55;;
36551;SDS011;22559;54.176;12.102;2022-10-16T16:05:05;3.55;;;2.53;;
36551;SDS011;22559;54.176;12.102;2022-10-16T16:07:33;1.95;;;1.80;;
36551;SDS011;22559;54.176;12.102;2022-10-16T16:10:03;2.38;;;1.60;;
36551;SDS011;22559;54.176;12.102;2022-10-16T16:12:32;2.40;;;1.75;;
36551;SDS011;22559;54.176;12.102;2022-10-16T16:14:57;6.03;;;1.77;;
36551;SDS011;22559;54.176;12.102;2022-10-16T16:17:23;2.80;;;1.90;;
36551;SDS011;22559;54.176;12.102;2022-10-16T16:19:49;4.35;;;2.28;;
36551;SDS011;22559;54.176;12.102;2022-10-16T16:22:15;5.68;;;2.28;;
36551;SDS011;22559;54.176;12.102;2022-10-16T16:24:40;4.15;;;1.88;;
36551;SDS011;22559;54.176;12.102;2022-10-16T16:27:06;2.10;;;1.80;;
36551;SDS011;22559;54.176;12.102;2022-10-16T16:29:32;3.58;;;1.65;;
36551;SDS011;22559;54.176;12.102;2022-10-16T16:31:59;5.10;;;3.03;;
36551;SDS011;22559;54.176;12.102;2022-10-16T16:34:28;4.20;;;1.60;;
36551;SDS011;22559;54.176;12.102;2022-10-16T16:36:54;2.77;;;1.50;;
36551;SDS011;22559;54.176;12.102;2022-10-16T16:39:20;2.83;;;1.50;;
36551;SDS011;22559;54.176;12.102;2022-10-16T16:41:47;4.17;;;1.67;;
36551;SDS011;22559;54.176;12.102;2022-10-16T16:44:13;2.33;;;1.90;;
36551;SDS011;22559;54.176;12.102;2022-10-16T16:46:40;4.27;;;2.27;;
36551;SDS011;22559;54.176;12.102;2022-10-16T16:49:08;5.13;;;1.93;;
36551;SDS011;22559;54.176;12.102;2022-10-16T16:51:35;5.23;;;2.50;;
36551;SDS011;22559;54.176;12.102;2022-10-16T16:54:01;2.83;;;1.87;;
36551;SDS011;22559;54.176;12.102;2022-10-16T16:56:27;4.00;;;1.80;;